Fairfield Terrace, South Carolina
Current Conditions -  °F | °C
As of 10:53 PM on Tuesday 27 Jan 2015 (Local Time) from KCUB Reporting Station
Clear Clear  
Wind Chill: 35°   Ceiling: Unl
Heat Index: 40°   Visibility: 10mi
Dew Point: 23°   Wind: 7mph
Humidity: 51%   Direction: 320°NW
Pressure: 30.04"   Gusts: NA
Location:  34.1179°N, 81.0612°W
Report Text: KCUB 280353Z AUTO 32006KT 10SM CLR 04/M05 A3004 RMK AO2 SLP171 T00441050
Loading
Personal Weather Stations






























Interactive Weather Map New forecast layout! Learn more

10-Day Weather Forecast

Advertisements
Track Severe Weather on mobile